createdAt,value
2018-01-04T00:02:04.885Z,88.09
2018-01-04T00:04:33.231Z,88.39
2018-01-04T00:07:01.646Z,88.69
2018-01-04T00:09:29.973Z,89.09
2018-01-04T00:11:58.298Z,88.91
2018-01-04T00:14:26.635Z,89.35
2018-01-04T00:16:55.045Z,89.16
2018-01-04T00:19:23.438Z,89.23
2018-01-04T00:21:51.694Z,89.00
2018-01-04T00:24:20.045Z,88.73
2018-01-04T00:26:48.358Z,88.53
2018-01-04T00:29:16.678Z,87.38
2018-01-04T00:31:45.006Z,87.16
2018-01-04T00:34:13.378Z,87.24
2018-01-04T00:36:41.713Z,87.05
2018-01-04T00:39:10.035Z,87.06
2018-01-04T00:41:38.359Z,86.87
2018-01-04T00:44:06.669Z,86.99
2018-01-04T00:46:35.061Z,87.07
2018-01-04T00:49:03.369Z,87.53
2018-01-04T00:51:31.698Z,87.84
2018-01-04T00:54:00.090Z,87.97
2018-01-04T00:56:28.474Z,88.02
2018-01-04T00:58:56.786Z,88.05
2018-01-04T01:01:25.117Z,88.31
2018-01-04T01:03:53.433Z,88.46
2018-01-04T01:06:21.773Z,88.46
2018-01-04T01:08:50.086Z,88.21
2018-01-04T01:11:18.413Z,88.51
2018-01-04T01:13:46.725Z,88.34
2018-01-04T01:16:15.057Z,88.30
2018-01-04T01:18:43.458Z,88.36
2018-01-04T01:21:11.795Z,87.76
2018-01-04T01:23:40.101Z,87.44
2018-01-04T01:26:08.442Z,87.00
2018-01-04T01:28:36.762Z,86.60
2018-01-04T01:31:05.094Z,86.46
2018-01-04T01:33:33.516Z,86.65
2018-01-04T01:36:01.850Z,86.56
2018-01-04T01:38:30.153Z,86.47
2018-01-04T01:40:58.491Z,86.75
2018-01-04T01:43:26.818Z,86.99
2018-01-04T01:45:55.193Z,87.53
2018-01-04T01:48:23.570Z,88.17
2018-01-04T01:50:51.945Z,88.52
2018-01-04T01:53:20.257Z,88.22
2018-01-04T01:55:48.595Z,88.96
2018-01-04T01:58:16.976Z,88.65
2018-01-04T02:00:45.318Z,88.81
2018-01-04T02:03:13.734Z,88.44
2018-01-04T02:05:42.074Z,88.66
2018-01-04T02:08:10.391Z,88.53
2018-01-04T02:10:38.714Z,88.27
2018-01-04T02:13:07.026Z,88.05
2018-01-04T02:15:35.418Z,87.84
2018-01-04T02:18:15.521Z,88.07
2018-01-04T02:20:55.761Z,88.08
2018-01-04T02:23:36.034Z,88.51
2018-01-04T02:26:04.365Z,89.04
2018-01-04T02:28:44.614Z,89.47
2018-01-04T02:31:24.966Z,90.17
2018-01-04T02:34:05.028Z,90.07
2018-01-04T02:36:45.273Z,90.51
2018-01-04T02:39:25.118Z,91.05
2018-01-04T02:42:04.969Z,90.98
2018-01-04T02:44:39.902Z,90.67
2018-01-04T02:47:07.955Z,90.72
2018-01-04T02:49:35.990Z,90.65
2018-01-04T02:52:04.042Z,90.53
2018-01-04T02:54:32.074Z,90.53
2018-01-04T02:57:00.130Z,90.40
2018-01-04T02:59:28.167Z,89.75
2018-01-04T03:01:56.281Z,89.65
2018-01-04T03:04:24.353Z,89.16
2018-01-04T03:06:52.401Z,88.50
2018-01-04T03:09:20.493Z,88.83
2018-01-04T03:11:48.567Z,88.67
2018-01-04T03:14:16.638Z,88.17
2018-01-04T03:16:44.686Z,88.04
2018-01-04T03:19:12.721Z,88.04
2018-01-04T03:21:46.311Z,88.09
2018-01-04T03:24:14.337Z,88.54
2018-01-04T03:26:48.010Z,88.36
2018-01-04T03:29:21.534Z,88.41
2018-01-04T03:31:55.094Z,88.83
2018-01-04T03:34:28.938Z,88.14
2018-01-04T03:37:02.721Z,87.70
2018-01-04T03:39:30.823Z,87.85
2018-01-04T03:42:04.553Z,87.72
2018-01-04T03:44:38.269Z,87.31
2018-01-04T03:47:12.034Z,87.47
2018-01-04T03:49:45.802Z,87.39
2018-01-04T03:52:32.696Z,87.51
2018-01-04T03:55:06.434Z,87.49
2018-01-04T03:57:40.162Z,87.25
2018-01-04T04:00:13.883Z,86.55
2018-01-04T04:02:47.474Z,86.62
2018-01-04T04:05:21.218Z,86.50
2018-01-04T04:07:49.270Z,86.12
2018-01-04T04:10:17.393Z,85.93
2018-01-04T04:12:45.441Z,86.30
2018-01-04T04:15:13.477Z,86.21
2018-01-04T04:17:41.533Z,86.39
2018-01-04T04:20:09.561Z,86.42
2018-01-04T04:22:37.617Z,86.45
2018-01-04T04:25:05.655Z,86.17
2018-01-04T04:27:33.705Z,85.96
2018-01-04T04:30:01.742Z,86.42
2018-01-04T04:32:29.789Z,86.54
2018-01-04T04:34:57.894Z,86.07
2018-01-04T04:37:25.951Z,86.20
2018-01-04T04:39:53.978Z,86.21
2018-01-04T04:42:22.097Z,86.62
2018-01-04T04:44:50.139Z,86.48
2018-01-04T04:47:18.237Z,86.67
2018-01-04T04:49:46.314Z,86.42
2018-01-04T04:52:14.370Z,86.29
2018-01-04T04:54:42.406Z,86.53
2018-01-04T04:57:10.473Z,86.51
2018-01-04T04:59:38.596Z,86.42
2018-01-04T05:02:06.645Z,86.36
2018-01-04T05:04:34.686Z,86.57
2018-01-04T05:07:02.802Z,86.55
2018-01-04T05:09:30.870Z,86.34
2018-01-04T05:11:58.905Z,86.75
2018-01-04T05:14:26.969Z,86.41
2018-01-04T05:16:54.998Z,86.58
2018-01-04T05:19:23.149Z,86.68
2018-01-04T05:21:51.181Z,86.74
2018-01-04T05:24:19.239Z,86.52
2018-01-04T05:26:47.269Z,86.93
2018-01-04T05:29:15.437Z,86.80
2018-01-04T05:31:43.469Z,86.64
2018-01-04T05:34:11.526Z,86.93
2018-01-04T05:36:39.553Z,86.51
2018-01-04T05:39:07.614Z,86.60
2018-01-04T05:41:35.644Z,86.43
2018-01-04T05:44:03.702Z,86.29
2018-01-04T05:46:31.734Z,86.22
2018-01-04T05:48:59.791Z,86.02
2018-01-04T05:51:27.830Z,86.04
2018-01-04T05:53:55.877Z,85.86
2018-01-04T05:56:23.909Z,86.29
2018-01-04T05:58:51.963Z,86.62
2018-01-04T06:01:19.994Z,86.45
2018-01-04T06:03:48.051Z,86.79
2018-01-04T06:06:16.082Z,87.13
2018-01-04T06:08:44.137Z,87.14
2018-01-04T06:11:12.173Z,87.47
2018-01-04T06:13:40.218Z,87.30
2018-01-04T06:16:08.246Z,87.16
2018-01-04T06:18:36.302Z,87.58
2018-01-04T06:21:04.340Z,87.56
2018-01-04T06:23:34.426Z,87.65
2018-01-04T06:26:02.681Z,87.52
2018-01-04T06:28:30.739Z,87.80
2018-01-04T06:30:58.774Z,87.38
2018-01-04T06:33:26.990Z,87.63
2018-01-04T06:35:55.046Z,87.50
2018-01-04T06:38:23.131Z,87.33
2018-01-04T06:40:51.175Z,87.65
2018-01-04T06:43:19.234Z,87.42
2018-01-04T06:45:47.276Z,87.46
2018-01-04T06:48:15.562Z,87.86
2018-01-04T06:50:46.538Z,87.02
2018-01-04T06:53:15.185Z,87.21
2018-01-04T06:55:43.217Z,87.07
2018-01-04T06:58:11.279Z,87.16
2018-01-04T07:00:39.813Z,86.87
2018-01-04T07:03:07.821Z,86.69
2018-01-04T07:05:35.879Z,86.54
2018-01-04T07:08:03.905Z,86.60
2018-01-04T07:10:31.963Z,86.80
2018-01-04T07:12:59.998Z,86.76
2018-01-04T07:15:28.058Z,87.29
2018-01-04T07:17:56.093Z,87.47
2018-01-04T07:20:24.150Z,87.68
2018-01-04T07:22:52.186Z,87.91
2018-01-04T07:25:20.242Z,87.92
2018-01-04T07:27:48.274Z,88.10
2018-01-04T07:30:16.329Z,88.50
2018-01-04T07:32:44.362Z,88.53
2018-01-04T07:35:12.418Z,88.85
2018-01-04T07:37:40.458Z,89.35
2018-01-04T07:40:08.513Z,89.88
2018-01-04T07:42:36.838Z,90.28
2018-01-04T07:45:05.174Z,90.79
2018-01-04T07:47:33.490Z,91.01
2018-01-04T07:50:01.826Z,91.41
2018-01-04T07:52:30.148Z,91.42
2018-01-04T07:54:58.528Z,91.34
2018-01-04T07:57:26.807Z,91.15
2018-01-04T07:59:55.163Z,91.61
2018-01-04T08:02:23.473Z,91.70
2018-01-04T08:04:51.790Z,91.35
2018-01-04T08:07:20.129Z,91.68
2018-01-04T08:09:48.447Z,91.78
2018-01-04T08:12:16.785Z,92.13
2018-01-04T08:14:45.102Z,92.24
2018-01-04T08:17:13.442Z,91.99
2018-01-04T08:19:41.757Z,91.87
2018-01-04T08:22:10.089Z,91.75
2018-01-04T08:24:38.406Z,91.70
2018-01-04T08:27:06.746Z,91.89
2018-01-04T08:29:35.058Z,91.85
2018-01-04T08:32:03.406Z,91.58
2018-01-04T08:34:31.718Z,91.63
2018-01-04T08:37:00.070Z,91.25
2018-01-04T08:39:28.386Z,90.64
2018-01-04T08:41:56.730Z,90.17
2018-01-04T08:44:25.080Z,90.25
2018-01-04T08:46:53.438Z,90.00
2018-01-04T08:49:21.761Z,90.15
2018-01-04T08:51:50.070Z,89.75
2018-01-04T08:54:18.711Z,89.73
2018-01-04T08:56:47.026Z,89.50
2018-01-04T08:59:15.365Z,89.71
2018-01-04T09:01:43.694Z,89.58
2018-01-04T09:04:12.035Z,88.74
2018-01-04T09:06:40.358Z,88.68
2018-01-04T09:09:08.694Z,88.66
2018-01-04T09:11:37.010Z,88.83
2018-01-04T09:14:05.531Z,88.58
2018-01-04T09:16:33.850Z,88.48
2018-01-04T09:19:02.191Z,88.52
2018-01-04T09:21:30.512Z,88.24
2018-01-04T09:23:58.895Z,88.53
2018-01-04T09:26:27.386Z,88.51
2018-01-04T09:28:56.091Z,88.62
2018-01-04T09:31:25.351Z,88.55
2018-01-04T09:33:54.096Z,88.44
2018-01-04T09:36:23.841Z,88.21
2018-01-04T09:38:52.597Z,88.14
2018-01-04T09:41:21.322Z,87.78
2018-01-04T09:43:50.177Z,87.28
2018-01-04T09:46:18.925Z,87.54
2018-01-04T09:48:47.663Z,87.45
2018-01-04T09:51:16.443Z,87.92
2018-01-04T09:53:46.182Z,87.62
2018-01-04T09:56:14.821Z,87.96
2018-01-04T09:58:43.349Z,87.47
2018-01-04T10:01:11.899Z,87.62
2018-01-04T10:03:40.670Z,87.57
2018-01-04T10:06:09.461Z,87.62
2018-01-04T10:08:38.144Z,87.42
2018-01-04T10:11:06.817Z,87.49
2018-01-04T10:13:35.472Z,87.30
2018-01-04T10:16:04.106Z,87.49
2018-01-04T10:18:32.730Z,87.46
2018-01-04T10:21:01.451Z,87.06
2018-01-04T10:23:30.141Z,86.73
2018-01-04T10:25:58.897Z,87.04
2018-01-04T10:28:27.670Z,86.99
2018-01-04T10:30:56.484Z,86.75
2018-01-04T10:33:25.270Z,87.05
2018-01-04T10:35:54.008Z,86.33
2018-01-04T10:38:22.669Z,86.47
2018-01-04T10:40:51.358Z,86.22
2018-01-04T10:43:19.747Z,86.71
2018-01-04T10:45:48.086Z,86.50
2018-01-04T10:48:16.406Z,86.68
2018-01-04T10:50:44.737Z,86.67
2018-01-04T10:53:13.054Z,86.51
2018-01-04T10:55:41.394Z,86.80
2018-01-04T10:58:09.718Z,86.40
2018-01-04T11:00:38.059Z,86.52
2018-01-04T11:03:06.374Z,86.43
2018-01-04T11:05:34.717Z,86.32
2018-01-04T11:08:03.038Z,86.79
2018-01-04T11:10:31.390Z,86.86
2018-01-04T11:12:59.714Z,85.83
2018-01-04T11:15:28.059Z,85.99
2018-01-04T11:17:56.382Z,86.42
2018-01-04T11:20:24.727Z,85.94
2018-01-04T11:22:53.083Z,86.22
2018-01-04T11:25:21.421Z,86.14
2018-01-04T11:27:49.741Z,85.57
2018-01-04T11:30:18.071Z,85.60
2018-01-04T11:32:46.391Z,85.83
2018-01-04T11:35:14.730Z,85.82
2018-01-04T11:37:43.709Z,85.72
2018-01-04T11:40:12.046Z,85.47
2018-01-04T11:42:40.374Z,85.24
2018-01-04T11:45:08.714Z,85.27
2018-01-04T11:47:37.034Z,84.97
2018-01-04T11:50:05.390Z,85.12
2018-01-04T11:52:33.714Z,85.42
2018-01-04T11:55:02.062Z,85.31
2018-01-04T11:57:30.719Z,84.95
2018-01-04T11:59:59.287Z,84.86
2018-01-04T12:02:27.593Z,84.92
2018-01-04T12:04:55.930Z,85.89
2018-01-04T12:07:24.252Z,83.79
2018-01-04T12:09:52.603Z,83.52
2018-01-04T12:12:20.974Z,83.56
2018-01-04T12:14:49.246Z,83.67
2018-01-04T12:17:17.583Z,84.21
2018-01-04T12:19:45.907Z,84.81
2018-01-04T12:22:14.252Z,84.43
2018-01-04T12:24:42.586Z,84.79
2018-01-04T12:27:10.925Z,84.85
2018-01-04T12:29:39.403Z,85.35
2018-01-04T12:32:08.068Z,85.58
2018-01-04T12:34:36.547Z,85.08
2018-01-04T12:37:05.277Z,84.92
2018-01-04T12:39:33.722Z,84.34
2018-01-04T12:42:02.126Z,84.66
2018-01-04T12:44:30.631Z,85.38
2018-01-04T12:46:59.118Z,85.42
2018-01-04T12:49:27.510Z,85.09
2018-01-04T12:51:56.062Z,84.56
2018-01-04T12:54:25.035Z,84.55
2018-01-04T12:56:54.580Z,84.67
2018-01-04T12:59:22.966Z,84.71
2018-01-04T13:01:51.310Z,85.27
2018-01-04T13:04:19.750Z,84.93
2018-01-04T13:06:48.087Z,84.94
2018-01-04T13:09:16.409Z,84.93
2018-01-04T13:11:44.902Z,85.55
2018-01-04T13:14:14.010Z,84.52
2018-01-04T13:16:42.350Z,84.06
2018-01-04T13:19:10.669Z,84.17
2018-01-04T13:21:39.015Z,84.50
2018-01-04T13:24:07.330Z,83.88
2018-01-04T13:26:35.679Z,84.02
2018-01-04T13:29:03.990Z,84.70
2018-01-04T13:31:32.334Z,84.89
2018-01-04T13:34:00.654Z,84.68
2018-01-04T13:36:29.001Z,84.85
2018-01-04T13:38:57.315Z,84.63
2018-01-04T13:41:25.665Z,83.88
2018-01-04T13:43:53.986Z,83.69
2018-01-04T13:46:22.322Z,83.95
2018-01-04T13:48:50.637Z,83.92
2018-01-04T13:51:18.982Z,83.86
2018-01-04T13:53:47.299Z,83.40
2018-01-04T13:56:15.637Z,83.42
2018-01-04T13:58:43.954Z,83.12
2018-01-04T14:01:12.294Z,83.21
2018-01-04T14:03:40.610Z,83.60
2018-01-04T14:06:08.951Z,83.52
2018-01-04T14:08:37.266Z,84.18
2018-01-04T14:11:05.616Z,83.49
2018-01-04T14:13:33.923Z,84.37
2018-01-04T14:16:02.283Z,84.53
2018-01-04T14:18:30.603Z,84.68
2018-01-04T14:20:58.918Z,84.24
2018-01-04T14:23:27.258Z,84.43
2018-01-04T14:25:55.894Z,84.61
2018-01-04T14:28:24.576Z,84.78
2018-01-04T14:30:52.954Z,84.94
2018-01-04T14:33:21.294Z,84.79
2018-01-04T14:35:49.610Z,85.00
2018-01-04T14:38:17.946Z,84.68
2018-01-04T14:40:46.266Z,84.93
2018-01-04T14:43:14.606Z,84.92
2018-01-04T14:45:42.919Z,84.84
2018-01-04T14:48:11.260Z,84.77
2018-01-04T14:50:39.604Z,84.92
2018-01-04T14:53:07.946Z,84.58
2018-01-04T14:55:36.267Z,84.46
2018-01-04T14:58:04.606Z,84.60
2018-01-04T15:00:32.922Z,84.35
2018-01-04T15:03:01.262Z,84.07
2018-01-04T15:05:29.668Z,84.31
2018-01-04T15:07:58.035Z,83.80
2018-01-04T15:10:26.350Z,83.13
2018-01-04T15:12:54.698Z,82.82
2018-01-04T15:15:23.027Z,82.45
2018-01-04T15:17:51.394Z,82.92
2018-01-04T15:20:19.713Z,84.60
2018-01-04T15:22:48.056Z,83.23
2018-01-04T15:25:16.376Z,83.59
2018-01-04T15:27:44.718Z,83.62
2018-01-04T15:30:13.848Z,84.22
2018-01-04T15:32:42.195Z,84.22
2018-01-04T15:35:10.505Z,84.57
2018-01-04T15:37:38.841Z,85.23
2018-01-04T15:40:07.185Z,85.41
2018-01-04T15:42:35.503Z,85.33
2018-01-04T15:45:03.822Z,85.71
2018-01-04T15:47:32.171Z,86.30
2018-01-04T15:50:00.481Z,87.80
2018-01-04T15:52:28.831Z,88.53
2018-01-04T15:54:57.149Z,88.99
2018-01-04T15:57:25.566Z,89.03
2018-01-04T15:59:53.875Z,89.67
2018-01-04T16:02:22.214Z,90.32
2018-01-04T16:04:50.545Z,90.37
2018-01-04T16:07:18.865Z,90.81
2018-01-04T16:09:47.195Z,91.73
2018-01-04T16:12:15.530Z,91.66
2018-01-04T16:14:43.847Z,91.81
2018-01-04T16:17:12.449Z,92.21
2018-01-04T16:19:40.763Z,92.23
2018-01-04T16:22:09.078Z,92.50
2018-01-04T16:24:37.415Z,92.43
2018-01-04T16:27:05.749Z,92.41
2018-01-04T16:29:34.070Z,92.25
2018-01-04T16:32:02.798Z,92.31
2018-01-04T16:34:36.032Z,92.37
2018-01-04T16:37:08.398Z,92.78
2018-01-04T16:39:36.734Z,92.61
2018-01-04T16:42:05.050Z,92.22
2018-01-04T16:44:33.390Z,91.82
2018-01-04T16:47:01.706Z,91.64
2018-01-04T16:49:30.158Z,91.19
2018-01-04T16:51:58.482Z,91.39
2018-01-04T16:54:26.822Z,91.53
2018-01-04T16:56:55.129Z,91.53
2018-01-04T16:59:23.681Z,91.81
2018-01-04T17:01:52.076Z,92.03
2018-01-04T17:04:20.435Z,92.56
2018-01-04T17:06:48.780Z,92.39
2018-01-04T17:09:17.107Z,92.32
2018-01-04T17:11:45.417Z,92.34
2018-01-04T17:14:13.747Z,92.38
2018-01-04T17:16:42.058Z,92.96
2018-01-04T17:19:10.391Z,93.28
2018-01-04T17:21:38.706Z,93.49
2018-01-04T17:24:07.047Z,93.87
2018-01-04T17:26:35.355Z,94.38
2018-01-04T17:29:03.699Z,94.98
2018-01-04T17:31:32.016Z,95.26
2018-01-04T17:34:00.363Z,95.88
2018-01-04T17:36:28.682Z,95.67
2018-01-04T17:38:56.997Z,95.04
2018-01-04T17:41:25.310Z,95.51
2018-01-04T17:43:53.646Z,96.08
2018-01-04T17:46:21.956Z,96.50
2018-01-04T17:48:50.290Z,96.76
2018-01-04T17:51:18.602Z,96.92
2018-01-04T17:53:46.943Z,96.78
2018-01-04T17:56:15.293Z,96.74
2018-01-04T17:58:43.599Z,96.64
2018-01-04T18:01:11.916Z,96.56
2018-01-04T18:03:40.255Z,96.69
2018-01-04T18:06:08.566Z,96.57
2018-01-04T18:08:36.905Z,96.57
2018-01-04T18:11:05.230Z,96.72
2018-01-04T18:13:33.564Z,96.74
2018-01-04T18:16:01.887Z,96.76
2018-01-04T18:18:30.226Z,96.92
2018-01-04T18:20:58.542Z,96.80
2018-01-04T18:23:26.887Z,97.02
2018-01-04T18:25:55.202Z,97.12
2018-01-04T18:28:23.525Z,97.40
2018-01-04T18:30:51.918Z,97.11
2018-01-04T18:33:20.242Z,97.09
2018-01-04T18:35:48.587Z,97.30
2018-01-04T18:38:17.041Z,97.29
2018-01-04T18:40:45.378Z,96.97
2018-01-04T18:43:13.701Z,96.87
2018-01-04T18:45:42.144Z,96.54
2018-01-04T18:48:10.674Z,96.62
2018-01-04T18:50:39.027Z,96.79
2018-01-04T18:53:07.350Z,96.73
2018-01-04T18:55:35.698Z,96.97
2018-01-04T18:58:04.036Z,97.12
2018-01-04T19:00:32.387Z,97.06
2018-01-04T19:03:00.710Z,96.78
2018-01-04T19:05:29.058Z,97.15
2018-01-04T19:07:57.386Z,97.18
2018-01-04T19:10:25.730Z,97.27
2018-01-04T19:12:54.059Z,97.37
2018-01-04T19:15:23.122Z,97.58
2018-01-04T19:17:51.445Z,97.52
2018-01-04T19:20:19.800Z,97.73
2018-01-04T19:22:48.127Z,98.09
2018-01-04T19:25:16.626Z,98.46
2018-01-04T19:27:45.015Z,98.38
2018-01-04T19:30:13.354Z,98.30
2018-01-04T19:32:41.674Z,98.22
2018-01-04T19:35:10.026Z,98.15
2018-01-04T19:37:38.357Z,98.09
2018-01-04T19:40:06.701Z,98.24
2018-01-04T19:42:35.867Z,98.33
2018-01-04T19:45:04.221Z,98.26
2018-01-04T19:47:32.535Z,98.33
2018-01-04T19:50:00.895Z,98.39
2018-01-04T19:52:29.223Z,98.54
2018-01-04T19:54:57.567Z,98.38
2018-01-04T19:57:25.891Z,98.25
2018-01-04T19:59:54.238Z,98.17
2018-01-04T20:02:22.559Z,98.00
2018-01-04T20:04:50.901Z,97.69
2018-01-04T20:07:19.315Z,97.60
2018-01-04T20:09:47.660Z,97.23
2018-01-04T20:12:15.974Z,97.01
2018-01-04T20:14:44.318Z,96.79
2018-01-04T20:17:12.663Z,96.71
2018-01-04T20:19:41.001Z,96.53
2018-01-04T20:22:09.330Z,96.26
2018-01-04T20:24:38.169Z,96.07
2018-01-04T20:27:06.491Z,95.82
2018-01-04T20:29:34.854Z,95.01
2018-01-04T20:32:03.218Z,95.26
2018-01-04T20:34:31.683Z,95.52
2018-01-04T20:37:00.027Z,95.53
2018-01-04T20:39:28.396Z,95.72
2018-01-04T20:41:56.797Z,95.69
2018-01-04T20:44:25.094Z,95.63
2018-01-04T20:46:53.520Z,95.26
2018-01-04T20:49:22.017Z,94.67
2018-01-04T20:51:50.798Z,93.20
2018-01-04T20:54:19.129Z,93.37
2018-01-04T20:56:47.471Z,91.94
2018-01-04T20:59:15.832Z,91.56
2018-01-04T21:01:44.351Z,91.31
2018-01-04T21:04:12.737Z,91.01
2018-01-04T21:06:41.069Z,90.34
2018-01-04T21:09:09.489Z,90.00
2018-01-04T21:11:38.843Z,90.44
2018-01-04T21:14:07.215Z,90.66
2018-01-04T21:16:35.714Z,90.39
2018-01-04T21:19:04.127Z,90.70
2018-01-04T21:21:32.806Z,90.63
2018-01-04T21:24:01.121Z,90.46
2018-01-04T21:26:29.466Z,90.33
2018-01-04T21:28:57.781Z,90.29
2018-01-04T21:31:26.354Z,90.46
2018-01-04T21:33:55.731Z,88.85
2018-01-04T21:36:25.170Z,87.64
2018-01-04T21:38:53.497Z,87.63
2018-01-04T21:41:21.952Z,87.45
2018-01-04T21:43:50.823Z,87.53
2018-01-04T21:46:19.697Z,87.19
2018-01-04T21:48:48.670Z,86.84
2018-01-04T21:51:16.997Z,86.26
2018-01-04T21:53:45.374Z,85.74
2018-01-04T21:56:13.714Z,84.85
2018-01-04T21:58:42.027Z,84.19
2018-01-04T22:01:10.357Z,83.89
2018-01-04T22:03:38.678Z,84.36
2018-01-04T22:06:07.018Z,84.26
2018-01-04T22:08:35.342Z,84.97
2018-01-04T22:11:03.699Z,84.97
2018-01-04T22:13:31.998Z,85.32
2018-01-04T22:16:00.339Z,84.86
2018-01-04T22:18:28.650Z,84.91
2018-01-04T22:20:56.989Z,84.90
2018-01-04T22:23:25.310Z,84.26
2018-01-04T22:25:53.655Z,85.00
2018-01-04T22:28:22.026Z,85.14
2018-01-04T22:30:50.438Z,84.79
2018-01-04T22:33:19.070Z,85.14
2018-01-04T22:35:48.339Z,85.52
2018-01-04T22:38:16.658Z,85.89
2018-01-04T22:40:44.982Z,85.08
2018-01-04T22:43:13.323Z,85.26
2018-01-04T22:45:42.691Z,84.98
2018-01-04T22:48:11.035Z,84.78
2018-01-04T22:50:40.779Z,83.82
2018-01-04T22:53:09.144Z,83.82
2018-01-04T22:55:38.382Z,83.33
2018-01-04T22:58:06.726Z,83.39
2018-01-04T23:00:35.047Z,83.24
2018-01-04T23:03:03.386Z,83.88
2018-01-04T23:05:31.699Z,83.84
2018-01-04T23:08:00.049Z,83.39
2018-01-04T23:10:28.350Z,83.83
2018-01-04T23:12:56.696Z,83.68
2018-01-04T23:15:25.009Z,82.79
2018-01-04T23:17:53.346Z,83.12
2018-01-04T23:20:21.662Z,83.17
2018-01-04T23:22:50.001Z,82.85
2018-01-04T23:25:18.369Z,83.08
2018-01-04T23:27:46.657Z,83.36
2018-01-04T23:30:14.975Z,83.63
2018-01-04T23:32:43.322Z,83.72
2018-01-04T23:35:11.638Z,84.68
2018-01-04T23:37:39.970Z,86.02
2018-01-04T23:40:08.285Z,86.09
2018-01-04T23:42:36.609Z,85.20
2018-01-04T23:45:04.923Z,85.26
2018-01-04T23:47:33.271Z,85.49
2018-01-04T23:50:01.582Z,85.98
2018-01-04T23:52:29.918Z,86.06
2018-01-04T23:54:59.138Z,85.53
2018-01-04T23:57:27.469Z,85.38
2018-01-04T23:59:55.781Z,85.10
